Nearby METAR Reports

 

KAVP - Avoca/Wilkes B., Pennsylvania, USA
Distance from station: N 16mi, 25km
Updated: 04/15/2024 7:54am
Clear
Clear
 Wind from calm
Wind: Calm
Temperature: 57°F, 14°C
Dew Point: 54°F, 12°C
Humidity: 88%
Barometer: 29.83 inHg, 1010.2 hPa
Clouds: Clear
Visibility: 7 miles, 11 km
2024/04/15 11:54 KAVP 151154Z 00000KT 7SM CLR 14/12 A2983 RMK AO2 SLP098 70020 T01390117 10150 20106 51031
KMPO - Mt. Pocono, Pennsylvania, USA
Distance from station: E 20mi, 33km
Updated: 04/15/2024 7:53am
Few Clouds
Few Clouds
 Wind from W
Wind: W 7 mph, 11 km/h
Temperature: 54°F, 12°C
Dew Point: 52°F, 11°C
Humidity: 94%
Barometer: 29.84 inHg, 1010.5 hPa
Clouds: Few Clouds
Visibility: 10 miles, 16 km
Cloud details: Few Clouds 500 ft
2024/04/15 11:53 KMPO 151153Z AUTO 27006KT 10SM FEW005 12/11 A2984 RMK AO2 SLP105 70012 T01170106 10117 20089 53030
 
KABE - Allentown, Pennsylvania, USA
Distance from station: SSE 36mi, 58km
Updated: 04/15/2024 7:51am
Clear
Clear
 Wind from SW
Wind: SW 5 mph, 7 km/h
Temperature: 57°F, 14°C
Dew Point: 55°F, 13°C
Humidity: 94%
Barometer: 29.83 inHg, 1010.2 hPa
Clouds: Clear
Visibility: 10 miles, 16 km
2024/04/15 11:51 KABE 151151Z 22004KT 10SM CLR 14/13 A2983 RMK AO2 SLP098 70013 T01440128 10144 20111 53029
KXLL - Allentown Queen, Pennsylvania, USA
Distance from station: SSE 41mi, 65km
Updated: 04/15/2024 8:15am
Clear
Clear
 Wind from SW
Wind: SW 8 mph, 13 km/h
Temperature: 61°F, 16°C
Dew Point: 55°F, 13°C
Humidity: 83%
Barometer: 29.86 inHg, 1011.2 hPa
Clouds: Clear
Visibility: 10 miles, 16 km
2024/04/15 12:15 KXLL 151215Z AUTO 22007KT 10SM CLR 16/13 A2986 RMK AO2